createdAt,value
2019-02-17T00:01:59.222Z,2.62
2019-02-17T00:06:03.792Z,2.35
2019-02-17T00:10:08.511Z,2.42
2019-02-17T00:14:13.070Z,2.20
2019-02-17T00:18:17.607Z,2.10
2019-02-17T00:22:22.400Z,1.95
2019-02-17T00:26:26.985Z,1.95
2019-02-17T00:30:31.550Z,2.00
2019-02-17T00:34:36.097Z,2.20
2019-02-17T00:38:40.652Z,2.40
2019-02-17T00:42:45.385Z,1.98
2019-02-17T00:46:49.928Z,2.30
2019-02-17T00:50:54.728Z,2.25
2019-02-17T00:54:59.311Z,2.22
2019-02-17T00:59:10.113Z,2.40
2019-02-17T01:03:10.092Z,2.35
2019-02-17T01:07:15.852Z,2.25
2019-02-17T01:11:20.473Z,2.70
2019-02-17T01:15:25.056Z,2.58
2019-02-17T01:19:29.612Z,2.72
2019-02-17T01:23:34.424Z,2.55
2019-02-17T01:27:39.002Z,2.70
2019-02-17T01:31:43.786Z,2.47
2019-02-17T01:35:48.400Z,2.35
2019-02-17T01:39:54.085Z,2.40
2019-02-17T01:43:58.618Z,2.58
2019-02-17T01:48:03.285Z,2.27
2019-02-17T01:52:09.082Z,2.65
2019-02-17T01:56:13.933Z,2.75
2019-02-17T02:00:19.100Z,2.60
2019-02-17T02:04:23.702Z,2.50
2019-02-17T02:08:28.256Z,2.70
2019-02-17T02:12:33.044Z,2.50
2019-02-17T02:16:37.596Z,3.02
2019-02-17T02:20:42.388Z,3.10
2019-02-17T02:24:46.978Z,2.95
2019-02-17T02:28:51.529Z,2.80
2019-02-17T02:32:56.317Z,2.98
2019-02-17T02:37:00.882Z,2.83
2019-02-17T02:41:05.643Z,2.85
2019-02-17T02:45:10.234Z,2.67
2019-02-17T02:49:14.776Z,2.30
2019-02-17T02:53:19.615Z,2.67
2019-02-17T02:57:24.262Z,2.52
2019-02-17T03:01:28.983Z,2.65
2019-02-17T03:05:36.440Z,2.45
2019-02-17T03:09:41.061Z,2.42
2019-02-17T03:13:45.635Z,2.50
2019-02-17T03:17:50.185Z,2.37
2019-02-17T03:21:54.976Z,2.70
2019-02-17T03:25:59.532Z,2.45
2019-02-17T03:30:06.200Z,2.47
2019-02-17T03:34:11.039Z,2.77
2019-02-17T03:38:15.650Z,2.55
2019-02-17T03:42:20.396Z,2.75
2019-02-17T03:46:24.986Z,2.37
2019-02-17T03:50:29.810Z,2.70
2019-02-17T03:54:34.350Z,2.42
2019-02-17T03:58:38.916Z,2.15
2019-02-17T04:02:43.707Z,2.80
2019-02-17T04:06:48.276Z,2.83
2019-02-17T04:10:53.077Z,1.90
2019-02-17T04:14:57.926Z,2.80
2019-02-17T04:19:02.596Z,2.47
2019-02-17T04:23:07.254Z,2.92
2019-02-17T04:27:13.974Z,2.40
2019-02-17T04:31:18.778Z,2.92
2019-02-17T04:35:23.336Z,2.95
2019-02-17T04:39:28.282Z,2.65
2019-02-17T04:43:34.659Z,2.30
2019-02-17T04:47:39.238Z,2.58
2019-02-17T04:51:43.909Z,2.20
2019-02-17T04:55:48.464Z,2.35
2019-02-17T04:59:53.319Z,3.87
2019-02-17T05:03:57.867Z,3.55
2019-02-17T05:08:02.411Z,2.65
2019-02-17T05:12:08.143Z,2.90
2019-02-17T05:16:12.711Z,2.40
2019-02-17T05:20:18.377Z,2.98
2019-02-17T05:24:22.973Z,2.70
2019-02-17T05:28:27.541Z,2.10
2019-02-17T05:32:32.360Z,2.50
2019-02-17T05:36:37.179Z,2.27
2019-02-17T05:40:41.994Z,2.52
2019-02-17T05:44:46.544Z,1.95
2019-02-17T05:48:51.101Z,2.62
2019-02-17T05:52:55.909Z,3.02
2019-02-17T05:57:00.467Z,2.33
2019-02-17T06:01:07.355Z,2.77
2019-02-17T06:05:11.765Z,2.15
2019-02-17T06:09:16.319Z,2.12
2019-02-17T06:13:20.923Z,2.17
2019-02-17T06:17:25.608Z,2.10
2019-02-17T06:21:30.400Z,1.92
2019-02-17T06:25:34.989Z,1.90
2019-02-17T06:29:39.792Z,1.20
2019-02-17T06:33:44.357Z,1.72
2019-02-17T06:37:49.165Z,2.00
2019-02-17T06:41:53.989Z,1.50
2019-02-17T06:45:58.909Z,1.77
2019-02-17T06:50:03.800Z,1.30
2019-02-17T06:54:08.355Z,1.87
2019-02-17T06:58:12.903Z,1.47
2019-02-17T07:02:17.661Z,1.25
2019-02-17T07:06:41.268Z,1.60
2019-02-17T07:10:46.022Z,1.37
2019-02-17T07:14:50.578Z,1.20
2019-02-17T07:18:55.124Z,1.10
2019-02-17T07:22:59.964Z,1.35
2019-02-17T07:27:04.527Z,1.30
2019-02-17T07:31:09.356Z,1.62
2019-02-17T07:35:13.968Z,1.98
2019-02-17T07:39:18.517Z,1.50
2019-02-17T07:43:23.084Z,1.77
2019-02-17T07:47:27.645Z,1.90
2019-02-17T07:51:33.513Z,1.60
2019-02-17T07:55:39.345Z,1.80
2019-02-17T07:59:44.104Z,1.82
2019-02-17T08:03:48.668Z,2.22
2019-02-17T08:07:53.224Z,1.85
2019-02-17T08:11:58.877Z,1.42
2019-02-17T08:16:03.603Z,1.40
2019-02-17T08:20:09.095Z,1.20
2019-02-17T08:24:15.983Z,1.57
2019-02-17T08:28:20.786Z,1.30
2019-02-17T08:32:25.709Z,1.35
2019-02-17T08:36:30.300Z,1.25
2019-02-17T08:40:34.973Z,0.95
2019-02-17T08:44:39.880Z,1.10
2019-02-17T08:48:44.503Z,1.40
2019-02-17T08:52:49.219Z,1.25
2019-02-17T08:56:53.833Z,1.52
2019-02-17T09:00:59.170Z,1.17
2019-02-17T09:05:03.723Z,1.10
2019-02-17T09:09:08.288Z,1.90
2019-02-17T09:13:13.087Z,1.00
2019-02-17T09:17:17.660Z,1.15
2019-02-17T09:21:22.444Z,1.07
2019-02-17T09:25:26.997Z,1.42
2019-02-17T09:29:31.572Z,1.80
2019-02-17T09:33:36.118Z,1.42
2019-02-17T09:37:40.680Z,0.90
2019-02-17T09:41:45.427Z,1.12
2019-02-17T09:45:50.003Z,0.90
2019-02-17T09:49:54.599Z,1.20
2019-02-17T09:53:59.178Z,0.75
2019-02-17T09:58:03.711Z,1.10
2019-02-17T10:02:08.394Z,0.80
2019-02-17T10:06:12.956Z,1.50
2019-02-17T10:10:17.797Z,1.92
2019-02-17T10:14:22.366Z,1.32
2019-02-17T10:18:26.933Z,1.45
2019-02-17T10:22:32.318Z,1.32
2019-02-17T10:26:36.914Z,1.20
2019-02-17T10:30:41.668Z,1.20
2019-02-17T10:34:46.211Z,1.40
2019-02-17T10:38:50.798Z,1.60
2019-02-17T10:42:56.278Z,1.70
2019-02-17T10:47:00.836Z,1.47
2019-02-17T10:51:05.400Z,1.87
2019-02-17T10:55:10.779Z,1.57
2019-02-17T10:59:15.428Z,1.15
2019-02-17T11:03:20.440Z,1.30
2019-02-17T11:07:25.005Z,1.10
2019-02-17T11:11:29.845Z,1.20
2019-02-17T11:15:36.975Z,1.05
2019-02-17T11:19:42.088Z,0.78
2019-02-17T11:23:49.422Z,0.85
2019-02-17T11:27:54.097Z,1.30
2019-02-17T11:31:59.378Z,0.60
2019-02-17T11:36:04.232Z,0.90
2019-02-17T11:40:10.320Z,0.85
2019-02-17T11:44:15.159Z,1.05
2019-02-17T11:48:20.320Z,1.52
2019-02-17T11:52:24.900Z,0.78
2019-02-17T11:56:29.468Z,1.10
2019-02-17T12:00:34.297Z,1.77
2019-02-17T12:04:38.937Z,0.80
2019-02-17T12:08:47.158Z,0.85
2019-02-17T12:12:52.074Z,1.37
2019-02-17T12:16:56.666Z,1.20
2019-02-17T12:21:23.886Z,0.60
2019-02-17T12:25:36.848Z,0.80
2019-02-17T12:29:44.721Z,0.70
2019-02-17T12:33:49.543Z,0.85
2019-02-17T12:37:54.121Z,1.10
2019-02-17T12:41:58.951Z,1.15
2019-02-17T12:46:03.658Z,0.80
2019-02-17T12:50:09.841Z,0.90
2019-02-17T12:54:14.399Z,0.72
2019-02-17T12:58:29.397Z,0.90
2019-02-17T13:02:25.500Z,0.88
2019-02-17T13:06:30.153Z,0.90
2019-02-17T13:10:34.981Z,0.90
2019-02-17T13:14:39.524Z,0.95
2019-02-17T13:18:44.079Z,1.05
2019-02-17T13:22:48.863Z,1.72
2019-02-17T13:26:53.453Z,0.80
2019-02-17T13:30:58.330Z,1.30
2019-02-17T13:35:02.964Z,1.02
2019-02-17T13:39:07.732Z,1.00
2019-02-17T13:43:12.650Z,1.00
2019-02-17T13:47:17.204Z,1.50
2019-02-17T13:51:21.868Z,1.75
2019-02-17T13:55:26.440Z,1.25
2019-02-17T13:59:31.209Z,1.62
2019-02-17T14:03:35.773Z,1.00
2019-02-17T14:07:40.345Z,3.75
2019-02-17T14:11:45.120Z,2.65
2019-02-17T14:15:49.708Z,1.00
2019-02-17T14:19:54.487Z,1.42
2019-02-17T14:23:59.060Z,1.30
2019-02-17T14:28:03.636Z,1.07
2019-02-17T14:32:08.440Z,1.10
2019-02-17T14:36:13.067Z,1.40
2019-02-17T14:40:17.787Z,0.90
2019-02-17T14:44:22.473Z,0.80
2019-02-17T14:48:27.077Z,1.00
2019-02-17T14:52:31.708Z,1.02
2019-02-17T14:56:36.276Z,1.10
2019-02-17T15:00:41.074Z,1.62
2019-02-17T15:04:45.720Z,1.30
2019-02-17T15:08:50.351Z,1.10
2019-02-17T15:12:58.542Z,1.20
2019-02-17T15:17:05.594Z,1.10
2019-02-17T15:21:10.499Z,0.90
2019-02-17T15:25:15.071Z,1.35
2019-02-17T15:29:19.965Z,1.40
2019-02-17T15:33:24.588Z,1.40
2019-02-17T15:37:29.180Z,1.15
2019-02-17T15:41:33.955Z,1.30
2019-02-17T15:45:38.536Z,1.60
2019-02-17T15:49:43.352Z,1.65
2019-02-17T15:53:48.038Z,2.80
2019-02-17T15:57:52.751Z,1.37
2019-02-17T16:01:57.640Z,1.40
2019-02-17T16:06:02.802Z,2.42
2019-02-17T16:10:08.608Z,2.30
2019-02-17T16:14:13.172Z,1.50
2019-02-17T16:18:17.745Z,1.87
2019-02-17T16:22:22.349Z,1.85
2019-02-17T16:26:26.936Z,1.87
2019-02-17T16:30:31.711Z,1.87
2019-02-17T16:34:38.680Z,2.60
2019-02-17T16:38:42.657Z,2.12
2019-02-17T16:42:47.513Z,1.90
2019-02-17T16:46:52.076Z,1.87
2019-02-17T16:50:57.287Z,2.12
2019-02-17T16:55:01.850Z,1.98
2019-02-17T16:59:06.499Z,1.92
2019-02-17T17:03:11.689Z,1.75
2019-02-17T17:07:16.253Z,1.87
2019-02-17T17:11:21.232Z,2.25
2019-02-17T17:15:25.821Z,2.30
2019-02-17T17:19:30.395Z,3.00
2019-02-17T17:23:37.185Z,2.55
2019-02-17T17:27:41.775Z,2.90
2019-02-17T17:31:47.401Z,3.12
2019-02-17T17:35:52.382Z,2.98
2019-02-17T17:39:57.224Z,3.50
2019-02-17T17:44:01.788Z,3.30
2019-02-17T17:48:07.815Z,3.30
2019-02-17T17:52:12.604Z,3.98
2019-02-17T17:56:17.163Z,3.70
2019-02-17T18:00:24.511Z,3.50
2019-02-17T18:04:29.076Z,4.00
2019-02-17T18:08:33.635Z,3.45
2019-02-17T18:12:38.272Z,4.37
2019-02-17T18:16:42.854Z,4.60
2019-02-17T18:20:47.628Z,4.42
2019-02-17T18:24:52.187Z,5.08
2019-02-17T18:28:57.138Z,5.00
2019-02-17T18:33:01.893Z,5.17
2019-02-17T18:37:06.748Z,4.30
2019-02-17T18:41:11.527Z,4.53
2019-02-17T18:45:16.487Z,4.50
2019-02-17T18:49:22.095Z,5.30
2019-02-17T18:53:26.661Z,5.67
2019-02-17T18:57:31.206Z,5.85
2019-02-17T19:01:36.057Z,5.60
2019-02-17T19:05:40.630Z,6.03
2019-02-17T19:09:45.547Z,6.78
2019-02-17T19:13:50.155Z,3.42
2019-02-17T19:17:54.739Z,3.25
2019-02-17T19:21:59.326Z,4.10
2019-02-17T19:26:03.948Z,4.17
2019-02-17T19:30:10.760Z,3.90
2019-02-17T19:34:15.699Z,3.70
2019-02-17T19:38:20.272Z,4.47
2019-02-17T19:42:25.042Z,3.40
2019-02-17T19:46:29.608Z,3.65
2019-02-17T19:50:35.964Z,4.08
2019-02-17T19:54:40.547Z,3.25
2019-02-17T19:58:45.158Z,4.08
2019-02-17T20:03:00.722Z,5.65
2019-02-17T20:07:05.370Z,4.00
2019-02-17T20:11:10.199Z,4.42
2019-02-17T20:15:14.775Z,4.28
2019-02-17T20:19:22.239Z,4.17
2019-02-17T20:23:26.865Z,3.90
2019-02-17T20:27:31.841Z,6.72
2019-02-17T20:31:36.644Z,6.80
2019-02-17T20:35:42.303Z,5.42
2019-02-17T20:39:47.092Z,3.30
2019-02-17T20:43:54.528Z,3.80
2019-02-17T20:47:59.183Z,3.37
2019-02-17T20:52:03.948Z,3.37
2019-02-17T20:56:08.505Z,3.58
2019-02-17T21:00:13.443Z,3.25
2019-02-17T21:04:18.089Z,3.65
2019-02-17T21:08:22.651Z,3.15
2019-02-17T21:12:27.504Z,3.20
2019-02-17T21:16:32.232Z,3.33
2019-02-17T21:20:38.055Z,3.58
2019-02-17T21:24:42.616Z,3.35
2019-02-17T21:28:47.161Z,2.80
2019-02-17T21:32:51.721Z,2.60
2019-02-17T21:36:56.652Z,2.42
2019-02-17T21:41:09.004Z,2.90
2019-02-17T21:45:09.128Z,3.35
2019-02-17T21:49:13.867Z,2.65
2019-02-17T21:53:20.709Z,3.47
2019-02-17T21:57:24.936Z,2.87
2019-02-17T22:01:29.613Z,2.55
2019-02-17T22:05:36.276Z,2.80
2019-02-17T22:09:41.115Z,2.83
2019-02-17T22:13:45.745Z,2.45
2019-02-17T22:17:50.288Z,2.55
2019-02-17T22:21:55.029Z,2.62
2019-02-17T22:25:59.906Z,2.50
2019-02-17T22:30:05.316Z,2.65
2019-02-17T22:34:10.145Z,2.50
2019-02-17T22:38:14.723Z,2.60
2019-02-17T22:42:19.551Z,2.40
2019-02-17T22:46:24.136Z,2.37
2019-02-17T22:50:28.976Z,2.92
2019-02-17T22:54:33.519Z,2.35
2019-02-17T22:58:38.091Z,2.50
2019-02-17T23:02:42.924Z,2.47
2019-02-17T23:06:53.810Z,3.05
2019-02-17T23:10:54.079Z,2.60
2019-02-17T23:14:58.620Z,2.62
2019-02-17T23:19:03.172Z,2.62
2019-02-17T23:23:07.931Z,2.27
2019-02-17T23:27:12.492Z,2.58
2019-02-17T23:31:17.336Z,2.52
2019-02-17T23:35:21.890Z,2.47
2019-02-17T23:39:26.457Z,2.47
2019-02-17T23:43:31.033Z,2.62
2019-02-17T23:47:35.592Z,2.92
2019-02-17T23:51:40.264Z,2.67
2019-02-17T23:55:44.836Z,2.12
2019-02-17T23:59:49.649Z,2.35
